Time;durP1;ratioP1;P1;durP2;ratioP2;P2;SDS_P1;SDS_P2;PMS_P1;PMS_P2;Temp;Humidity;BMP_temperature;BMP_pressure;BME280_temperature;BME280_humidity;BME280_pressure;Samples;Min_cycle;Max_cycle;Signal;HPM_P1;HPM_P2
2021/12/07 00:06:36;;;;;;;10.75;9.05;;;23.00;60.20;;;;;;31565578;28;20036;-45
2021/12/07 00:21:39;;;;;;;6.97;6.18;;;23.30;59.90;;;;;;31617242;28;20080;-45
2021/12/07 00:36:45;;;;;;;4.20;3.40;;;23.30;59.80;;;;;;31622371;28;20100;-40
2021/12/07 00:51:47;;;;;;;2.15;1.95;;;23.10;60.20;;;;;;31666683;28;20072;-37
2021/12/07 01:07:02;;;;;;;1.70;1.60;;;23.00;60.20;;;;;;31534113;28;20041;-43
2021/12/07 02:07:49;;;;;;;0.28;0.25;;;23.20;61.10;;;;;;31648679;28;20042;-38
2021/12/07 02:22:51;;;;;;;0.20;0.20;;;23.30;60.60;;;;;;31649487;28;20078;-36
2021/12/07 02:37:56;;;;;;;0.63;0.63;;;23.10;60.90;;;;;;31530786;28;20116;-36
2021/12/07 02:52:58;;;;;;;0.38;0.30;;;23.00;61.20;;;;;;31716547;28;20123;-37
2021/12/07 03:08:18;;;;;;;0.63;0.30;;;22.90;61.20;;;;;;31624749;28;20040;-47
2021/12/07 03:38:41;;;;;;;0.10;0.10;;;22.70;61.70;;;;;;31541539;28;20104;-37
2021/12/07 03:53:43;;;;;;;0.10;0.10;;;23.20;62.10;;;;;;31634038;28;20096;-40
2021/12/07 04:08:45;;;;;;;0.17;0.17;;;23.30;61.70;;;;;;31628851;28;20099;-57
2021/12/07 04:23:47;;;;;;;0.10;0.10;;;23.20;61.30;;;;;;31640831;28;20056;-52
2021/12/07 04:38:49;;;;;;;2.90;0.20;;;22.90;61.80;;;;;;31563222;28;20637;-57
2021/12/07 05:09:36;;;;;;;0.10;0.10;;;22.90;62.10;;;;;;31592725;28;20074;-56
2021/12/07 05:24:51;;;;;;;0.63;0.10;;;22.80;62.20;;;;;;31567134;28;20083;-56
2021/12/07 05:39:54;;;;;;;0.10;0.10;;;23.20;62.40;;;;;;31570073;28;20420;-36
2021/12/07 05:54:56;;;;;;;0.15;0.10;;;23.30;61.90;;;;;;31618813;28;20065;-38
2021/12/07 06:09:58;;;;;;;9.80;3.75;;;23.20;61.60;;;;;;31660593;28;20036;-48
2021/12/07 06:25:00;;;;;;;23.45;7.82;;;23.00;61.40;;;;;;31627075;28;20131;-48
2021/12/07 06:40:05;;;;;;;13.02;5.10;;;22.90;60.90;;;;;;31598387;28;20072;-47
2021/12/07 06:55:08;;;;;;;10.25;4.43;;;22.80;61.00;;;;;;31609774;28;20104;-51
2021/12/07 07:10:13;;;;;;;9.40;3.83;;;23.00;61.20;;;;;;31584097;28;20165;-37
2021/12/07 07:25:15;;;;;;;7.78;2.90;;;23.20;60.80;;;;;;31572492;28;20105;-41
2021/12/07 07:40:19;;;;;;;5.43;2.67;;;23.10;60.60;;;;;;31576607;28;20074;-46
2021/12/07 07:55:22;;;;;;;6.57;3.15;;;23.00;60.50;;;;;;31562738;28;20068;-45
2021/12/07 08:10:28;;;;;;;142.23;108.72;;;22.90;60.40;;;;;;31605208;28;20092;-57
2021/12/07 08:25:39;;;;;;;101.88;77.60;;;22.20;53.00;;;;;;31589670;28;20052;-58
2021/12/07 08:40:42;;;;;;;62.65;47.75;;;22.30;53.30;;;;;;31579123;28;20074;-46
2021/12/07 09:11:13;;;;;;;47.83;36.42;;;22.80;53.70;;;;;;31567059;28;20044;-49
2021/12/07 09:26:16;;;;;;;31.30;25.10;;;22.70;53.70;;;;;;31547740;28;20921;-47
2021/12/07 09:41:18;;;;;;;31.50;23.23;;;22.50;52.10;;;;;;31607197;28;20052;-42
2021/12/07 09:56:21;;;;;;;51.08;40.28;;;22.40;52.40;;;;;;31570174;28;20068;-41
2021/12/07 10:11:24;;;;;;;38.58;29.85;;;22.70;52.60;;;;;;31616192;28;20045;-49
2021/12/07 10:26:29;;;;;;;29.13;22.48;;;22.90;53.10;;;;;;31556386;28;20064;-40
2021/12/07 10:41:34;;;;;;;25.73;18.15;;;22.70;52.30;;;;;;31585848;28;20048;-48
2021/12/07 10:56:38;;;;;;;18.27;12.57;;;22.50;51.60;;;;;;31571616;28;20053;-44
2021/12/07 11:11:40;;;;;;;14.40;12.13;;;22.40;49.30;;;;;;31599262;28;20492;-46
2021/12/07 11:42:24;;;;;;;44.30;32.97;;;22.90;52.80;;;;;;31619799;28;20051;-40
2021/12/07 11:57:26;;;;;;;30.85;21.70;;;22.90;53.10;;;;;;31678087;28;20094;-45
2021/12/07 12:12:50;;;;;;;26.45;18.55;;;22.60;51.30;;;;;;31633218;28;20100;-46
2021/12/07 12:27:55;;;;;;;25.38;17.63;;;22.60;51.80;;;;;;31631314;28;20080;-48
2021/12/07 12:43:01;;;;;;;17.02;14.35;;;22.50;52.50;;;;;;31643794;28;20108;-48
2021/12/07 12:58:07;;;;;;;16.08;13.90;;;22.90;52.80;;;;;;31744086;28;20123;-46
2021/12/07 13:13:33;;;;;;;18.85;13.25;;;23.00;52.90;;;;;;31697423;28;20068;-46
2021/12/07 13:28:36;;;;;;;22.73;13.93;;;22.90;53.20;;;;;;31729918;28;20067;-51
2021/12/07 13:43:42;;;;;;;23.35;12.93;;;22.90;53.50;;;;;;31613346;28;20096;-51
2021/12/07 13:59:03;;;;;;;24.30;12.07;;;22.70;54.10;;;;;;31564296;28;20075;-41
2021/12/07 14:14:14;;;;;;;24.67;12.65;;;22.80;54.40;;;;;;31618429;28;20048;-54
2021/12/07 14:29:20;;;;;;;21.80;11.23;;;23.10;54.30;;;;;;31589285;28;20056;-53
2021/12/07 14:44:34;;;;;;;27.10;10.32;;;23.00;54.50;;;;;;31625665;28;20100;-57
2021/12/07 14:59:41;;;;;;;22.67;10.00;;;23.00;54.50;;;;;;31651620;28;20092;-57
2021/12/07 15:14:43;;;;;;;22.60;9.45;;;22.90;54.70;;;;;;31672153;28;20525;-57
2021/12/07 15:29:45;;;;;;;16.80;8.85;;;22.70;54.90;;;;;;31740920;28;20059;-57
2021/12/07 15:44:54;;;;;;;11.63;7.35;;;22.90;54.80;;;;;;31717153;28;20074;-57
2021/12/07 16:00:01;;;;;;;17.47;8.03;;;23.10;54.70;;;;;;31569085;28;20063;-49
2021/12/07 16:15:10;;;;;;;14.63;7.07;;;23.00;54.80;;;;;;31296279;28;10000495;-47
2021/12/07 16:30:13;;;;;;;23.50;8.43;;;23.00;54.90;;;;;;31619207;28;20120;-52
2021/12/07 16:45:17;;;;;;;32.92;10.32;;;22.90;56.10;;;;;;31595876;28;20071;-51
2021/12/07 17:00:23;;;;;;;33.58;10.85;;;22.70;55.00;;;;;;31616142;28;20048;-51
2021/12/07 17:15:25;;;;;;;24.02;7.18;;;22.60;54.50;;;;;;31624671;28;20071;-52
2021/12/07 17:30:28;;;;;;;17.92;7.00;;;22.70;55.20;;;;;;31644113;28;20108;-51
2021/12/07 17:45:31;;;;;;;18.23;7.15;;;23.10;55.90;;;;;;31680415;28;20088;-49
2021/12/07 18:00:37;;;;;;;20.80;6.00;;;23.40;58.40;;;;;;31582139;28;20051;-46
2021/12/07 18:15:40;;;;;;;12.20;5.40;;;23.20;57.80;;;;;;31284803;28;10000526;-50
2021/12/07 18:30:47;;;;;;;5.72;4.60;;;23.10;57.30;;;;;;31655333;28;20576;-40
2021/12/07 18:45:51;;;;;;;7.35;4.93;;;23.00;57.50;;;;;;31585047;28;20048;-44
2021/12/07 19:00:56;;;;;;;12.50;3.92;;;23.00;58.90;;;;;;31655670;28;20045;-51
2021/12/07 19:15:58;;;;;;;4.85;3.38;;;23.00;60.30;;;;;;31679197;28;20135;-40
2021/12/07 19:31:02;;;;;;;8.90;3.75;;;23.00;61.50;;;;;;31709235;28;20056;-44
2021/12/07 19:46:04;;;;;;;5.32;2.95;;;22.90;62.30;;;;;;31677670;28;20032;-41
2021/12/07 20:01:09;;;;;;;13.80;4.57;;;23.00;60.80;;;;;;31595871;28;20068;-47
2021/12/07 20:16:12;;;;;;;15.98;4.53;;;22.70;62.00;;;;;;31595283;28;20777;-57
2021/12/07 20:31:17;;;;;;;23.40;6.50;;;22.70;62.50;;;;;;31641878;28;20052;-48
2021/12/07 20:46:20;;;;;;;16.27;5.72;;;22.60;62.90;;;;;;31615712;28;20067;-44
2021/12/07 21:01:22;;;;;;;11.50;5.45;;;22.70;62.50;;;;;;31572918;28;20043;-46
2021/12/07 21:16:25;;;;;;;14.48;5.15;;;22.60;62.60;;;;;;31648194;28;20118;-45
2021/12/07 21:31:28;;;;;;;8.25;4.28;;;22.50;61.90;;;;;;31679479;28;20102;-47
2021/12/07 21:46:30;;;;;;;14.10;7.43;;;22.80;62.00;;;;;;31733756;28;20060;-46
2021/12/07 22:01:32;;;;;;;7.45;4.97;;;23.30;60.40;;;;;;31636708;28;20096;-47
2021/12/07 22:16:35;;;;;;;4.25;2.67;;;23.40;60.60;;;;;;31751928;28;20130;-36
2021/12/07 22:31:37;;;;;;;2.47;1.90;;;23.30;60.60;;;;;;31585657;28;20060;-39
2021/12/07 22:46:40;;;;;;;1.77;1.10;;;23.20;60.70;;;;;;31619506;28;20060;-39
2021/12/07 23:01:42;;;;;;;0.80;0.70;;;23.20;60.50;;;;;;31584653;28;20063;-38
2021/12/07 23:16:51;;;;;;;0.52;0.52;;;23.10;60.90;;;;;;31310066;28;9999832;-38
2021/12/07 23:31:55;;;;;;;0.25;0.25;;;23.00;60.80;;;;;;31664872;28;20108;-36
2021/12/07 23:46:57;;;;;;;17.65;12.68;;;23.00;60.80;;;;;;31652870;28;20115;-35
